createdAt,value
2023-05-11T00:00:32.008Z,14.10
2023-05-11T00:02:58.664Z,14.10
2023-05-11T00:05:25.365Z,14.10
2023-05-11T00:07:51.889Z,14.10
2023-05-11T00:10:18.734Z,14.00
2023-05-11T00:12:45.508Z,14.00
2023-05-11T00:15:12.032Z,14.00
2023-05-11T00:17:38.645Z,14.00
2023-05-11T00:20:05.485Z,14.00
2023-05-11T00:22:32.360Z,14.00
2023-05-11T00:24:58.908Z,14.00
2023-05-11T00:27:25.563Z,14.00
2023-05-11T00:29:52.354Z,14.00
2023-05-11T00:32:19.140Z,13.90
2023-05-11T00:34:45.785Z,13.90
2023-05-11T00:37:12.369Z,13.90
2023-05-11T00:39:40.546Z,13.90
2023-05-11T00:42:07.542Z,13.80
2023-05-11T00:44:34.301Z,13.80
2023-05-11T00:47:01.022Z,13.80
2023-05-11T00:49:27.758Z,13.80
2023-05-11T00:51:54.691Z,13.80
2023-05-11T00:54:21.244Z,13.80
2023-05-11T00:56:48.403Z,13.80
2023-05-11T00:59:15.176Z,13.70
2023-05-11T01:01:41.807Z,13.70
2023-05-11T01:04:08.703Z,13.70
2023-05-11T01:06:44.433Z,13.70
2023-05-11T01:09:27.477Z,13.60
2023-05-11T01:12:03.163Z,13.60
2023-05-11T01:14:46.552Z,13.70
2023-05-11T01:17:20.555Z,13.70
2023-05-11T01:19:53.827Z,13.60
2023-05-11T01:22:40.623Z,13.70
2023-05-11T01:25:12.528Z,13.60
2023-05-11T01:27:55.659Z,13.70
2023-05-11T01:30:31.435Z,13.60
2023-05-11T01:32:59.546Z,13.60
2023-05-11T01:35:26.760Z,13.60
2023-05-11T01:37:55.304Z,13.60
2023-05-11T01:40:23.743Z,13.50
2023-05-11T01:43:08.364Z,13.50
2023-05-11T01:45:37.231Z,13.60
2023-05-11T01:48:05.961Z,13.50
2023-05-11T01:50:33.192Z,13.50
2023-05-11T01:53:01.615Z,13.50
2023-05-11T01:55:29.658Z,13.60
2023-05-11T01:57:56.265Z,13.50
2023-05-11T02:00:23.673Z,13.60
2023-05-11T02:02:50.500Z,13.50
2023-05-11T02:05:19.661Z,13.50
2023-05-11T02:07:46.575Z,13.50
2023-05-11T02:10:14.764Z,13.50
2023-05-11T02:12:42.008Z,13.50
2023-05-11T02:15:09.538Z,13.50
2023-05-11T02:17:36.473Z,13.40
2023-05-11T02:20:04.612Z,13.50
2023-05-11T02:22:32.162Z,13.40
2023-05-11T02:24:58.787Z,13.50
2023-05-11T02:27:25.498Z,13.50
2023-05-11T02:29:52.329Z,13.50
2023-05-11T02:32:21.629Z,13.50
2023-05-11T02:34:53.429Z,13.50
2023-05-11T02:37:23.453Z,13.50
2023-05-11T02:39:52.814Z,13.60
2023-05-11T02:42:21.018Z,13.50
2023-05-11T02:44:53.414Z,13.50
2023-05-11T02:47:21.174Z,13.60
2023-05-11T02:49:53.584Z,13.60
2023-05-11T02:52:21.329Z,13.60
2023-05-11T02:54:49.784Z,13.60
2023-05-11T02:57:16.393Z,13.60
2023-05-11T02:59:42.995Z,13.60
2023-05-11T03:02:09.655Z,13.60
2023-05-11T03:04:36.314Z,13.60
2023-05-11T03:07:02.851Z,13.70
2023-05-11T03:09:29.418Z,13.60
2023-05-11T03:11:56.824Z,13.60
2023-05-11T03:14:23.501Z,13.60
2023-05-11T03:16:51.042Z,13.60
2023-05-11T03:19:17.671Z,13.60
2023-05-11T03:21:44.866Z,13.60
2023-05-11T03:24:12.082Z,13.70
2023-05-11T03:26:39.323Z,13.60
2023-05-11T03:29:07.338Z,13.60
2023-05-11T03:31:33.916Z,13.70
2023-05-11T03:34:00.497Z,13.60
2023-05-11T03:36:27.565Z,13.60
2023-05-11T03:38:56.486Z,13.60
2023-05-11T03:41:23.473Z,13.70
2023-05-11T03:43:51.705Z,13.70
2023-05-11T03:46:20.119Z,13.70
2023-05-11T03:48:47.676Z,13.70
2023-05-11T03:51:14.579Z,13.70
2023-05-11T03:53:41.385Z,13.70
2023-05-11T03:56:08.378Z,13.70
2023-05-11T03:58:38.386Z,13.70
2023-05-11T04:01:06.245Z,13.70
2023-05-11T04:03:32.933Z,13.70
2023-05-11T04:05:59.943Z,13.70
2023-05-11T04:08:26.466Z,13.80
2023-05-11T04:10:52.992Z,13.80
2023-05-11T04:13:19.543Z,13.80
2023-05-11T04:15:46.181Z,13.90
2023-05-11T04:18:12.935Z,13.90
2023-05-11T04:20:39.481Z,13.90
2023-05-11T04:23:06.963Z,14.00
2023-05-11T04:25:34.287Z,14.10
2023-05-11T04:28:00.829Z,14.10
2023-05-11T04:30:27.389Z,14.20
2023-05-11T04:32:53.944Z,14.30
2023-05-11T04:35:21.895Z,14.30
2023-05-11T04:37:48.438Z,14.40
2023-05-11T04:40:14.975Z,14.50
2023-05-11T04:42:41.538Z,14.50
2023-05-11T04:45:08.246Z,14.60
2023-05-11T04:47:34.892Z,14.70
2023-05-11T04:50:01.613Z,14.70
2023-05-11T04:52:28.359Z,14.80
2023-05-11T04:54:54.922Z,14.80
2023-05-11T04:57:21.484Z,14.90
2023-05-11T04:59:48.020Z,14.90
2023-05-11T05:02:14.574Z,14.90
2023-05-11T05:04:41.114Z,14.90
2023-05-11T05:07:07.849Z,15.00
2023-05-11T05:09:34.402Z,15.00
2023-05-11T05:12:01.571Z,15.00
2023-05-11T05:14:28.097Z,15.00
2023-05-11T05:16:54.697Z,15.00
2023-05-11T05:19:21.286Z,15.00
2023-05-11T05:21:48.337Z,15.00
2023-05-11T05:24:14.897Z,15.00
2023-05-11T05:26:41.404Z,15.10
2023-05-11T05:29:07.996Z,15.10
2023-05-11T05:31:34.982Z,15.10
2023-05-11T05:34:01.640Z,15.10
2023-05-11T05:36:28.188Z,15.20
2023-05-11T05:38:54.727Z,15.20
2023-05-11T05:41:22.236Z,15.30
2023-05-11T05:43:48.967Z,15.30
2023-05-11T05:46:15.822Z,15.30
2023-05-11T05:48:42.452Z,15.30
2023-05-11T05:51:09.020Z,15.40
2023-05-11T05:53:35.586Z,15.40
2023-05-11T05:56:02.123Z,15.40
2023-05-11T05:58:28.653Z,15.40
2023-05-11T06:00:55.207Z,15.50
2023-05-11T06:03:21.841Z,15.50
2023-05-11T06:05:48.616Z,15.60
2023-05-11T06:08:15.164Z,15.70
2023-05-11T06:10:41.702Z,15.70
2023-05-11T06:13:08.531Z,15.70
2023-05-11T06:15:35.071Z,15.70
2023-05-11T06:18:01.651Z,15.80
2023-05-11T06:20:28.324Z,15.80
2023-05-11T06:22:54.875Z,15.80
2023-05-11T06:25:21.569Z,15.80
2023-05-11T06:27:48.121Z,15.80
2023-05-11T06:30:14.715Z,15.80
2023-05-11T06:32:41.332Z,15.80
2023-05-11T06:35:08.098Z,15.80
2023-05-11T06:37:35.462Z,15.80
2023-05-11T06:40:02.044Z,15.90
2023-05-11T06:42:28.635Z,15.90
2023-05-11T06:44:55.563Z,15.90
2023-05-11T06:47:22.316Z,16.00
2023-05-11T06:49:48.950Z,16.00
2023-05-11T06:52:15.541Z,16.10
2023-05-11T06:54:42.074Z,16.20
2023-05-11T06:57:08.680Z,16.20
2023-05-11T06:59:35.238Z,16.30
2023-05-11T07:02:01.794Z,16.30
2023-05-11T07:04:29.773Z,16.40
2023-05-11T07:06:56.458Z,16.40
2023-05-11T07:09:23.052Z,16.50
2023-05-11T07:11:51.050Z,16.50
2023-05-11T07:14:17.740Z,16.60
2023-05-11T07:16:44.652Z,16.60
2023-05-11T07:19:11.277Z,16.60
2023-05-11T07:21:37.985Z,16.60
2023-05-11T07:24:04.608Z,16.70
2023-05-11T07:26:31.293Z,16.70
2023-05-11T07:28:57.841Z,16.80
2023-05-11T07:31:24.409Z,16.80
2023-05-11T07:33:50.998Z,16.80
2023-05-11T07:36:17.585Z,16.90
2023-05-11T07:38:44.287Z,16.90
2023-05-11T07:41:12.515Z,17.00
2023-05-11T07:43:39.848Z,17.00
2023-05-11T07:46:06.484Z,17.00
2023-05-11T07:48:33.166Z,17.10
2023-05-11T07:51:00.826Z,17.10
2023-05-11T07:53:27.416Z,17.20
2023-05-11T07:55:53.964Z,17.20
2023-05-11T07:58:20.509Z,17.30
2023-05-11T08:00:47.059Z,17.30
2023-05-11T08:03:14.491Z,17.40
2023-05-11T08:05:41.123Z,17.50
2023-05-11T08:08:07.701Z,17.60
2023-05-11T08:10:35.414Z,17.70
2023-05-11T08:13:01.938Z,17.70
2023-05-11T08:15:28.572Z,17.80
2023-05-11T08:17:55.451Z,17.90
2023-05-11T08:20:22.121Z,18.00
2023-05-11T08:22:48.821Z,18.00
2023-05-11T08:25:16.361Z,18.10
2023-05-11T08:27:43.031Z,18.10
2023-05-11T08:30:11.747Z,18.10
2023-05-11T08:32:54.551Z,18.20
2023-05-11T08:35:24.879Z,18.20
2023-05-11T08:37:51.527Z,18.20
2023-05-11T08:40:19.063Z,18.30
2023-05-11T08:42:46.450Z,18.30
2023-05-11T08:45:13.271Z,18.20
2023-05-11T08:47:39.823Z,18.20
2023-05-11T08:50:06.705Z,18.30
2023-05-11T08:52:34.395Z,18.30
2023-05-11T08:55:01.057Z,18.30
2023-05-11T08:57:29.380Z,18.40
2023-05-11T08:59:56.074Z,18.40
2023-05-11T09:02:23.819Z,18.40
2023-05-11T09:04:50.861Z,18.40
2023-05-11T09:07:18.387Z,18.50
2023-05-11T09:09:45.784Z,18.50
2023-05-11T09:12:12.617Z,18.50
2023-05-11T09:14:39.198Z,18.60
2023-05-11T09:17:06.491Z,18.60
2023-05-11T09:19:33.098Z,18.70
2023-05-11T09:22:00.209Z,18.70
2023-05-11T09:24:27.329Z,18.70
2023-05-11T09:27:06.345Z,18.70
2023-05-11T09:29:32.878Z,18.70
2023-05-11T09:31:59.428Z,18.80
2023-05-11T09:34:26.648Z,18.90
2023-05-11T09:36:53.873Z,18.90
2023-05-11T09:39:37.844Z,18.90
2023-05-11T09:42:17.716Z,18.90
2023-05-11T09:44:44.749Z,19.00
2023-05-11T09:47:12.765Z,18.90
2023-05-11T09:49:43.410Z,19.00
2023-05-11T09:52:13.801Z,19.00
2023-05-11T09:54:41.815Z,19.00
2023-05-11T09:57:21.789Z,19.10
2023-05-11T09:59:48.368Z,19.20
2023-05-11T10:02:31.016Z,19.30
2023-05-11T10:04:58.768Z,19.30
2023-05-11T10:07:26.564Z,19.40
2023-05-11T10:09:57.345Z,19.50
2023-05-11T10:12:25.624Z,19.50
2023-05-11T10:14:54.335Z,19.50
2023-05-11T10:17:21.482Z,19.60
2023-05-11T10:19:48.928Z,19.50
2023-05-11T10:22:16.053Z,19.60
2023-05-11T10:24:43.061Z,19.50
2023-05-11T10:27:10.433Z,19.50
2023-05-11T10:29:37.425Z,19.50
2023-05-11T10:32:04.560Z,19.50
2023-05-11T10:34:31.132Z,19.50
2023-05-11T10:36:59.951Z,19.50
2023-05-11T10:39:26.719Z,19.50
2023-05-11T10:42:04.692Z,19.40
2023-05-11T10:44:40.986Z,19.40
2023-05-11T10:47:07.716Z,19.40
2023-05-11T10:49:43.288Z,19.40
2023-05-11T10:52:12.972Z,19.30
2023-05-11T10:54:51.847Z,19.30
2023-05-11T10:57:28.634Z,19.40
2023-05-11T11:00:14.329Z,19.40
2023-05-11T11:02:42.024Z,19.40
2023-05-11T11:05:13.912Z,19.50
2023-05-11T11:07:59.682Z,19.60
2023-05-11T11:10:33.750Z,19.70
2023-05-11T11:13:10.278Z,19.80
2023-05-11T11:15:55.257Z,19.80
2023-05-11T11:18:25.034Z,19.90
2023-05-11T11:20:55.336Z,19.90
2023-05-11T11:23:40.292Z,19.90
2023-05-11T11:26:07.586Z,19.90
2023-05-11T11:28:53.015Z,20.00
2023-05-11T11:31:26.205Z,20.00
2023-05-11T11:33:53.364Z,20.00
2023-05-11T11:36:39.863Z,19.80
2023-05-11T11:39:06.402Z,19.80
2023-05-11T11:41:33.936Z,19.90
2023-05-11T11:44:00.506Z,19.90
2023-05-11T11:46:30.162Z,20.00
2023-05-11T11:49:09.984Z,20.00
2023-05-11T11:51:40.398Z,20.10
2023-05-11T11:54:07.627Z,20.20
2023-05-11T11:56:36.815Z,20.30
2023-05-11T11:59:05.247Z,20.30
2023-05-11T12:01:35.996Z,20.30
2023-05-11T12:04:09.445Z,20.20
2023-05-11T12:06:40.001Z,20.30
2023-05-11T12:09:09.652Z,20.30
2023-05-11T12:11:37.323Z,20.30
2023-05-11T12:14:04.538Z,20.30
2023-05-11T12:16:32.205Z,20.30
2023-05-11T12:19:01.891Z,20.40
2023-05-11T12:21:29.626Z,20.40
2023-05-11T12:23:57.426Z,20.40
2023-05-11T12:26:24.929Z,20.40
2023-05-11T12:28:52.257Z,20.30
2023-05-11T12:31:18.884Z,20.30
2023-05-11T12:33:49.536Z,20.20
2023-05-11T12:36:16.839Z,20.20
2023-05-11T12:38:44.587Z,20.30
2023-05-11T12:41:11.464Z,20.30
2023-05-11T12:43:38.106Z,20.30
2023-05-11T12:46:04.778Z,20.40
2023-05-11T12:48:31.433Z,20.40
2023-05-11T12:50:57.965Z,20.40
2023-05-11T12:53:24.670Z,20.30
2023-05-11T12:56:00.533Z,20.30
2023-05-11T12:58:35.294Z,20.30
2023-05-11T13:01:01.919Z,20.30
2023-05-11T13:03:29.421Z,20.30
2023-05-11T13:06:08.980Z,20.20
2023-05-11T13:08:36.598Z,20.20
2023-05-11T13:11:23.082Z,20.00
2023-05-11T13:13:50.268Z,19.90
2023-05-11T13:16:24.246Z,19.80
2023-05-11T13:19:17.376Z,19.80
2023-05-11T13:21:46.276Z,19.70
2023-05-11T13:24:19.528Z,19.70
2023-05-11T13:26:46.246Z,19.70
2023-05-11T13:29:13.509Z,19.60
2023-05-11T13:31:50.052Z,19.60
2023-05-11T13:34:17.112Z,19.50
2023-05-11T13:36:43.680Z,19.50
2023-05-11T13:39:10.564Z,19.40
2023-05-11T13:41:37.162Z,19.40
2023-05-11T13:44:03.861Z,19.40
2023-05-11T13:46:30.423Z,19.40
2023-05-11T13:48:58.158Z,19.40
2023-05-11T13:51:24.676Z,19.40
2023-05-11T13:53:51.246Z,19.40
2023-05-11T13:56:19.601Z,19.50
2023-05-11T13:58:46.202Z,19.50
2023-05-11T14:01:12.778Z,19.50
2023-05-11T14:03:39.613Z,19.60
2023-05-11T14:06:06.283Z,19.70
2023-05-11T14:08:32.811Z,19.70
2023-05-11T14:10:59.366Z,19.60
2023-05-11T14:13:25.877Z,19.60
2023-05-11T14:15:52.402Z,19.60
2023-05-11T14:18:19.072Z,19.60
2023-05-11T14:20:45.949Z,19.50
2023-05-11T14:23:13.663Z,19.50
2023-05-11T14:25:40.224Z,19.60
2023-05-11T14:28:07.290Z,19.60
2023-05-11T14:30:33.927Z,19.60
2023-05-11T14:33:00.759Z,19.50
2023-05-11T14:35:27.357Z,19.50
2023-05-11T14:37:54.657Z,19.40
2023-05-11T14:40:21.296Z,19.40
2023-05-11T14:42:47.833Z,19.40
2023-05-11T14:45:14.393Z,19.30
2023-05-11T14:47:41.023Z,19.20
2023-05-11T14:50:08.003Z,19.20
2023-05-11T14:52:34.512Z,19.10
2023-05-11T14:55:01.039Z,19.10
2023-05-11T14:57:27.575Z,19.00
2023-05-11T14:59:59.962Z,18.90
2023-05-11T15:02:27.009Z,18.90
2023-05-11T15:04:53.791Z,18.80
2023-05-11T15:07:20.332Z,18.70
2023-05-11T15:09:46.891Z,18.70
2023-05-11T15:12:13.438Z,18.70
2023-05-11T15:14:39.963Z,18.60
2023-05-11T15:17:06.496Z,18.50
2023-05-11T15:19:33.067Z,18.60
2023-05-11T15:21:59.634Z,18.60
2023-05-11T15:24:26.193Z,18.50
2023-05-11T15:26:53.219Z,18.50
2023-05-11T15:29:20.634Z,18.50
2023-05-11T15:31:47.314Z,18.40
2023-05-11T15:34:16.117Z,18.40
2023-05-11T15:36:42.671Z,18.30
2023-05-11T15:39:09.202Z,18.30
2023-05-11T15:41:35.888Z,18.30
2023-05-11T15:44:02.430Z,18.20
2023-05-11T15:46:29.035Z,18.20
2023-05-11T15:48:58.257Z,18.10
2023-05-11T15:51:26.132Z,18.10
2023-05-11T15:53:52.873Z,18.10
2023-05-11T15:56:19.470Z,18.00
2023-05-11T15:58:46.263Z,18.00
2023-05-11T16:01:13.092Z,18.00
2023-05-11T16:03:39.707Z,18.00
2023-05-11T16:06:06.548Z,17.90
2023-05-11T16:08:33.076Z,17.90
2023-05-11T16:10:59.589Z,17.90
2023-05-11T16:13:26.111Z,17.80
2023-05-11T16:15:52.656Z,17.80
2023-05-11T16:18:19.934Z,17.80
2023-05-11T16:20:46.682Z,17.80
2023-05-11T16:23:13.596Z,17.80
2023-05-11T16:25:40.209Z,17.80
2023-05-11T16:28:06.820Z,17.80
2023-05-11T16:30:33.392Z,17.80
2023-05-11T16:32:59.995Z,17.80
2023-05-11T16:35:26.866Z,17.80
2023-05-11T16:37:54.945Z,17.80
2023-05-11T16:40:21.979Z,17.80
2023-05-11T16:42:48.892Z,17.70
2023-05-11T16:45:16.411Z,17.60
2023-05-11T16:47:45.226Z,17.50
2023-05-11T16:50:14.496Z,17.50
2023-05-11T16:52:41.700Z,17.50
2023-05-11T16:55:08.551Z,17.50
2023-05-11T16:57:35.102Z,17.50
2023-05-11T17:00:01.684Z,17.40
2023-05-11T17:02:28.263Z,17.40
2023-05-11T17:04:55.689Z,17.40
2023-05-11T17:07:22.315Z,17.40
2023-05-11T17:09:52.044Z,17.30
2023-05-11T17:12:18.581Z,17.30
2023-05-11T17:14:45.114Z,17.30
2023-05-11T17:17:11.628Z,17.30
2023-05-11T17:19:38.283Z,17.20
2023-05-11T17:22:05.133Z,17.20
2023-05-11T17:24:31.679Z,17.10
2023-05-11T17:26:58.410Z,17.10
2023-05-11T17:29:24.937Z,17.10
2023-05-11T17:31:52.270Z,17.00
2023-05-11T17:34:20.010Z,17.00
2023-05-11T17:36:47.886Z,16.90
2023-05-11T17:39:15.953Z,16.90
2023-05-11T17:41:42.772Z,16.80
2023-05-11T17:44:09.452Z,16.80
2023-05-11T17:46:36.150Z,16.70
2023-05-11T17:49:02.899Z,16.70
2023-05-11T17:51:29.433Z,16.60
2023-05-11T17:53:56.212Z,16.70
2023-05-11T17:56:23.343Z,16.60
2023-05-11T17:58:51.369Z,16.60
2023-05-11T18:01:18.156Z,16.60
2023-05-11T18:03:45.128Z,16.50
2023-05-11T18:06:11.768Z,16.50
2023-05-11T18:08:38.441Z,16.50
2023-05-11T18:11:05.181Z,16.40
2023-05-11T18:13:31.796Z,16.40
2023-05-11T18:15:59.269Z,16.40
2023-05-11T18:18:26.020Z,16.30
2023-05-11T18:20:52.737Z,16.30
2023-05-11T18:23:19.303Z,16.30
2023-05-11T18:25:45.870Z,16.20
2023-05-11T18:28:12.602Z,16.20
2023-05-11T18:30:39.293Z,16.20
2023-05-11T18:33:05.992Z,16.10
2023-05-11T18:35:32.649Z,16.10
2023-05-11T18:37:59.649Z,16.10
2023-05-11T18:40:27.150Z,16.00
2023-05-11T18:42:53.849Z,16.00
2023-05-11T18:45:20.430Z,16.00
2023-05-11T18:47:47.051Z,16.00
2023-05-11T18:50:13.673Z,16.00
2023-05-11T18:52:40.299Z,15.90
2023-05-11T18:55:07.322Z,15.80
2023-05-11T18:57:34.410Z,15.80
2023-05-11T19:00:01.248Z,15.80
2023-05-11T19:02:28.015Z,15.80
2023-05-11T19:04:54.771Z,15.80
2023-05-11T19:07:21.318Z,15.80
2023-05-11T19:09:47.909Z,15.80
2023-05-11T19:12:14.505Z,15.80
2023-05-11T19:14:41.147Z,15.80
2023-05-11T19:17:07.819Z,15.70
2023-05-11T19:19:34.418Z,15.70
2023-05-11T19:22:01.053Z,15.80
2023-05-11T19:24:28.370Z,15.70
2023-05-11T19:27:05.866Z,15.80
2023-05-11T19:29:32.905Z,15.70
2023-05-11T19:31:59.499Z,15.70
2023-05-11T19:34:26.111Z,15.70
2023-05-11T19:36:52.635Z,15.60
2023-05-11T19:39:19.141Z,15.70
2023-05-11T19:41:45.677Z,15.60
2023-05-11T19:44:12.217Z,15.70
2023-05-11T19:46:45.502Z,15.60
2023-05-11T19:49:13.127Z,15.60
2023-05-11T19:51:39.652Z,15.60
2023-05-11T19:54:06.313Z,15.60
2023-05-11T19:56:32.907Z,15.60
2023-05-11T19:58:59.704Z,15.50
2023-05-11T20:01:26.352Z,15.50
2023-05-11T20:03:53.025Z,15.50
2023-05-11T20:06:19.624Z,15.50
2023-05-11T20:08:48.657Z,15.50
2023-05-11T20:11:15.551Z,15.50
2023-05-11T20:13:43.879Z,15.50
2023-05-11T20:16:10.748Z,15.40
2023-05-11T20:18:37.395Z,15.40
2023-05-11T20:21:04.278Z,15.40
2023-05-11T20:23:30.831Z,15.40
2023-05-11T20:25:57.373Z,15.40
2023-05-11T20:28:27.109Z,15.40
2023-05-11T20:30:54.847Z,15.40
2023-05-11T20:35:53.164Z,15.40
2023-05-11T20:38:20.559Z,15.40
2023-05-11T20:40:47.233Z,15.40
2023-05-11T20:43:14.972Z,15.40
2023-05-11T20:45:42.188Z,15.40
2023-05-11T20:48:09.034Z,15.30
2023-05-11T20:50:35.658Z,15.30
2023-05-11T20:53:02.229Z,15.30
2023-05-11T20:55:28.841Z,15.30
2023-05-11T20:57:55.478Z,15.30
2023-05-11T21:00:22.760Z,15.30
2023-05-11T21:02:49.708Z,15.20
2023-05-11T21:05:16.510Z,15.20
2023-05-11T21:07:43.040Z,15.20
2023-05-11T21:10:11.066Z,15.20
2023-05-11T21:12:37.612Z,15.20
2023-05-11T21:15:04.506Z,15.20
2023-05-11T21:17:31.112Z,15.20
2023-05-11T21:19:57.678Z,15.20
2023-05-11T21:22:24.233Z,15.20
2023-05-11T21:24:50.801Z,15.20
2023-05-11T21:27:17.387Z,15.10
2023-05-11T21:29:43.994Z,15.10
2023-05-11T21:32:10.594Z,15.10
2023-05-11T21:34:37.228Z,15.10
2023-05-11T21:37:03.826Z,15.10
2023-05-11T21:39:30.383Z,15.10
2023-05-11T21:41:57.004Z,15.10
2023-05-11T21:44:23.590Z,15.10
2023-05-11T21:46:50.503Z,15.10
2023-05-11T21:49:17.239Z,15.10
2023-05-11T21:51:43.850Z,15.10
2023-05-11T21:54:10.694Z,15.10
2023-05-11T21:56:37.248Z,15.20
2023-05-11T21:59:03.830Z,15.20
2023-05-11T22:01:30.547Z,15.20
2023-05-11T22:03:57.320Z,15.20
2023-05-11T22:06:23.916Z,15.20
2023-05-11T22:08:50.577Z,15.20
2023-05-11T22:11:17.270Z,15.20
2023-05-11T22:13:44.484Z,15.10
2023-05-11T22:16:11.124Z,15.10
2023-05-11T22:18:37.736Z,15.10
2023-05-11T22:21:04.468Z,15.10
2023-05-11T22:23:31.811Z,15.10
2023-05-11T22:25:58.423Z,15.10
2023-05-11T22:28:24.965Z,15.10
2023-05-11T22:30:51.477Z,15.10
2023-05-11T22:33:17.997Z,15.00
2023-05-11T22:35:44.601Z,15.00
2023-05-11T22:38:11.311Z,15.00
2023-05-11T22:40:37.829Z,15.00
2023-05-11T22:43:04.620Z,15.00
2023-05-11T22:45:31.300Z,14.90
2023-05-11T22:47:57.926Z,14.90
2023-05-11T22:50:24.530Z,15.00
2023-05-11T22:52:51.052Z,14.90
2023-05-11T22:55:17.902Z,14.90
2023-05-11T22:57:44.658Z,14.90
2023-05-11T23:00:11.647Z,14.90
2023-05-11T23:02:38.380Z,14.80
2023-05-11T23:05:05.274Z,14.90
2023-05-11T23:07:31.861Z,14.90
2023-05-11T23:09:58.410Z,14.90
2023-05-11T23:12:24.989Z,14.90
2023-05-11T23:14:52.313Z,14.90
2023-05-11T23:17:18.888Z,14.90
2023-05-11T23:19:45.497Z,14.80
2023-05-11T23:22:12.073Z,14.80
2023-05-11T23:24:38.603Z,14.80
2023-05-11T23:27:05.247Z,14.80
2023-05-11T23:29:31.905Z,14.80
2023-05-11T23:31:58.452Z,14.80
2023-05-11T23:34:25.011Z,14.70
2023-05-11T23:36:51.641Z,14.80
2023-05-11T23:39:18.251Z,14.70
2023-05-11T23:41:44.802Z,14.70
2023-05-11T23:44:11.692Z,14.70
2023-05-11T23:46:38.520Z,14.70
2023-05-11T23:49:05.131Z,14.60
2023-05-11T23:51:32.313Z,14.60
2023-05-11T23:53:59.605Z,14.60
2023-05-11T23:56:26.168Z,14.60
2023-05-11T23:58:52.759Z,14.50
